Time;durP1;ratioP1;P1;durP2;ratioP2;P2;SDS_P1;SDS_P2;PMS_P1;PMS_P2;Temp;Humidity;BMP_temperature;BMP_pressure;BME280_temperature;BME280_humidity;BME280_pressure;Samples;Min_cycle;Max_cycle;Signal;HPM_P1;HPM_P2
2023/07/31 00:00:10;;;;;;;9.18;2.90;;;15.10;99.90;;;;;;6100604;23;20028;-94
2023/07/31 00:02:36;;;;;;;9.00;3.08;;;15.10;99.90;;;;;;6099640;23;20116;-92
2023/07/31 00:05:10;;;;;;;9.63;2.90;;;15.00;99.90;;;;;;6126850;23;20010;-91
2023/07/31 00:07:45;;;;;;;8.55;3.15;;;15.00;99.90;;;;;;6099888;23;20398;-92
2023/07/31 00:10:25;;;;;;;16.17;3.10;;;15.00;99.90;;;;;;6125807;23;20014;-92
2023/07/31 00:13:06;;;;;;;9.95;3.10;;;15.10;99.90;;;;;;6105296;23;20021;-94
2023/07/31 00:15:32;;;;;;;8.02;3.10;;;15.00;99.90;;;;;;6135462;23;20010;-93
2023/07/31 00:18:13;;;;;;;9.27;3.08;;;15.00;99.90;;;;;;6099913;23;20474;-93
2023/07/31 00:20:39;;;;;;;9.10;2.90;;;14.90;99.90;;;;;;6100032;23;20022;-92
2023/07/31 00:23:09;;;;;;;8.82;3.03;;;15.00;99.90;;;;;;6101110;23;20304;-94
2023/07/31 00:25:41;;;;;;;10.23;3.08;;;14.90;99.90;;;;;;6099447;23;20013;-91
2023/07/31 00:28:19;;;;;;;10.23;3.53;;;14.90;99.90;;;;;;6104203;23;20021;-92
2023/07/31 00:30:44;;;;;;;10.02;3.33;;;15.00;99.90;;;;;;6125680;23;20052;-92
2023/07/31 00:33:31;;;;;;;9.07;3.30;;;14.90;99.90;;;;;;6126947;23;20026;-92
2023/07/31 00:36:44;;;;;;;10.45;3.38;;;14.90;99.90;;;;;;6102234;23;20081;-92
2023/07/31 00:39:48;;;;;;;9.10;3.42;;;14.90;99.90;;;;;;6099524;23;20110;-95
2023/07/31 00:42:17;;;;;;;8.57;3.72;;;14.70;99.90;;;;;;6100983;23;20069;-93
2023/07/31 02:46:10;;;;;;;;;;;;;;;;;;;;;
2023/07/31 03:12:36;;;;;;;;;;;;;;;;;;;;;
2023/07/31 06:29:26;;;;;;;26.17;10.48;;;16.00;99.90;;;;;;6079446;23;20045;-90
2023/07/31 06:31:51;;;;;;;27.23;10.90;;;16.00;99.90;;;;;;6128630;23;20026;-89
2023/07/31 06:34:19;;;;;;;24.85;10.23;;;16.10;99.90;;;;;;6155230;23;20016;-90
2023/07/31 06:36:51;;;;;;;27.83;10.80;;;16.00;99.90;;;;;;6079091;23;20079;-89
2023/07/31 06:39:26;;;;;;;25.50;10.70;;;15.80;99.90;;;;;;6129633;23;20025;-90
2023/07/31 06:42:00;;;;;;;29.30;10.68;;;16.10;99.90;;;;;;6155314;23;20025;-90
2023/07/31 06:44:40;;;;;;;31.27;10.70;;;16.10;99.90;;;;;;6128239;23;20450;-91
2023/07/31 06:47:24;;;;;;;28.90;10.60;;;16.00;99.90;;;;;;6130432;23;20041;-90
2023/07/31 06:49:49;;;;;;;26.10;10.68;;;16.10;99.90;;;;;;6157284;23;20036;-88
2023/07/31 06:52:36;;;;;;;28.33;10.30;;;16.10;99.90;;;;;;6094991;23;20476;-87
2023/07/31 06:55:19;;;;;;;25.73;10.13;;;16.10;99.90;;;;;;6096317;23;20059;-87
2023/07/31 06:57:45;;;;;;;29.27;10.30;;;16.10;99.90;;;;;;6094213;23;20021;-88
2023/07/31 07:00:11;;;;;;;26.77;9.93;;;16.10;99.90;;;;;;6095077;23;20022;-86
2023/07/31 07:02:36;;;;;;;27.42;10.40;;;16.10;99.90;;;;;;6094632;23;20019;-86
2023/07/31 07:05:02;;;;;;;23.30;9.43;;;16.10;99.90;;;;;;6094050;23;20327;-85
2023/07/31 07:07:34;;;;;;;23.50;9.38;;;16.10;99.90;;;;;;6095074;23;20018;-86
2023/07/31 07:10:09;;;;;;;22.50;9.65;;;16.20;99.90;;;;;;6095305;23;20073;-86
2023/07/31 07:12:41;;;;;;;24.88;9.07;;;16.10;99.90;;;;;;6070077;23;20101;-85
2023/07/31 07:15:08;;;;;;;29.48;9.77;;;16.10;99.90;;;;;;6071627;23;20014;-85
2023/07/31 07:17:46;;;;;;;26.25;9.05;;;16.10;99.90;;;;;;6094766;23;20040;-85
2023/07/31 07:20:12;;;;;;;27.35;8.90;;;16.10;99.90;;;;;;6094929;23;20049;-85
2023/07/31 07:26:30;;;;;;;18.77;7.10;;;15.90;99.90;;;;;;6156051;23;20484;-85
2023/07/31 07:28:55;;;;;;;18.58;7.15;;;16.00;99.90;;;;;;6129554;23;20410;-87
2023/07/31 07:31:24;;;;;;;18.40;7.53;;;16.50;99.90;;;;;;6130208;23;20075;-87
2023/07/31 07:34:02;;;;;;;18.20;7.28;;;16.00;99.90;;;;;;6155489;23;20010;-88
2023/07/31 07:36:28;;;;;;;19.40;7.30;;;16.00;99.90;;;;;;6157035;23;20013;-86
2023/07/31 07:38:54;;;;;;;16.48;6.40;;;16.00;99.90;;;;;;6128224;23;20021;-86
2023/07/31 07:41:22;;;;;;;15.45;6.57;;;16.00;99.90;;;;;;6130530;23;20013;-86
2023/07/31 07:43:54;;;;;;;19.25;7.03;;;16.10;99.90;;;;;;6129817;23;20018;-87
2023/07/31 07:46:19;;;;;;;18.05;7.20;;;16.30;99.90;;;;;;6155665;23;20358;-88
2023/07/31 07:48:45;;;;;;;18.77;7.38;;;16.80;99.90;;;;;;6128163;23;20022;-87
2023/07/31 07:51:11;;;;;;;16.70;6.78;;;16.20;99.90;;;;;;6133082;23;20408;-87
2023/07/31 07:53:36;;;;;;;18.90;7.55;;;16.10;99.90;;;;;;6128546;23;20104;-86
2023/07/31 07:56:02;;;;;;;18.92;7.30;;;16.90;99.90;;;;;;6129763;23;20014;-87
2023/07/31 07:58:27;;;;;;;16.92;6.47;;;16.00;99.90;;;;;;6129187;23;20461;-87
2023/07/31 08:00:53;;;;;;;13.55;6.47;;;16.30;99.90;;;;;;6126496;23;20072;-86
2023/07/31 08:03:19;;;;;;;14.82;6.82;;;16.40;99.90;;;;;;6129411;23;20010;-86
2023/07/31 08:05:45;;;;;;;16.92;5.97;;;16.10;99.90;;;;;;6155718;23;20013;-87
2023/07/31 08:08:16;;;;;;;15.90;6.38;;;16.70;99.90;;;;;;6128496;23;20022;-87
2023/07/31 08:10:43;;;;;;;18.67;6.43;;;16.20;99.90;;;;;;6129352;23;20021;-86
2023/07/31 08:13:11;;;;;;;14.77;6.15;;;16.10;99.90;;;;;;6129493;23;20017;-88
2023/07/31 08:15:36;;;;;;;16.23;6.28;;;16.20;99.90;;;;;;6154653;23;20093;-86
2023/07/31 08:18:03;;;;;;;13.68;6.25;;;16.20;99.90;;;;;;6129095;23;20025;-86
2023/07/31 08:20:29;;;;;;;14.05;5.75;;;16.50;99.90;;;;;;6129336;23;20032;-87
2023/07/31 08:22:55;;;;;;;12.45;5.45;;;16.20;99.90;;;;;;6154520;23;20041;-86
2023/07/31 08:25:20;;;;;;;12.85;5.30;;;16.30;99.90;;;;;;6155932;23;20449;-87
2023/07/31 08:27:46;;;;;;;12.20;5.00;;;16.20;99.90;;;;;;6129506;23;20018;-88
2023/07/31 08:30:12;;;;;;;12.23;4.80;;;16.30;99.90;;;;;;6128527;23;20099;-86
2023/07/31 08:32:37;;;;;;;11.45;5.22;;;16.30;99.90;;;;;;6155437;23;20022;-85
2023/07/31 08:35:06;;;;;;;16.35;5.22;;;16.30;99.90;;;;;;6156086;23;20514;-87
2023/07/31 08:37:53;;;;;;;12.70;4.95;;;16.30;99.90;;;;;;6154965;23;20135;-88
2023/07/31 08:40:18;;;;;;;13.95;5.10;;;16.30;99.90;;;;;;6128548;23;20017;-85
2023/07/31 08:42:53;;;;;;;11.18;4.68;;;16.30;99.90;;;;;;6154405;23;20016;-86
2023/07/31 08:45:20;;;;;;;11.05;4.90;;;16.30;99.90;;;;;;6155986;23;20013;-87
2023/07/31 08:47:47;;;;;;;12.73;4.78;;;16.60;99.90;;;;;;6155135;23;20017;-87
2023/07/31 08:50:17;;;;;;;11.38;4.78;;;16.40;99.90;;;;;;6154684;23;20014;-86
2023/07/31 08:52:43;;;;;;;11.00;4.55;;;16.50;99.90;;;;;;6129377;23;20028;-87
2023/07/31 08:55:09;;;;;;;11.95;4.30;;;16.60;99.90;;;;;;6155276;23;20088;-86
2023/07/31 08:57:36;;;;;;;10.48;4.28;;;16.50;99.90;;;;;;6127713;23;20017;-87
2023/07/31 09:00:07;;;;;;;11.43;4.30;;;16.50;99.90;;;;;;6155738;23;20017;-87
2023/07/31 09:02:45;;;;;;;11.15;4.35;;;16.60;99.90;;;;;;6129468;23;20017;-87
2023/07/31 09:05:12;;;;;;;10.45;3.63;;;16.70;99.90;;;;;;6129491;23;20100;-86
2023/07/31 09:07:39;;;;;;;10.65;4.13;;;16.80;99.90;;;;;;6154974;23;20342;-87
2023/07/31 09:10:05;;;;;;;10.80;4.32;;;16.70;99.90;;;;;;6129223;23;20017;-88
2023/07/31 09:12:31;;;;;;;10.43;4.03;;;16.80;99.90;;;;;;6127583;23;20319;-89
2023/07/31 09:14:58;;;;;;;9.93;4.00;;;16.90;99.90;;;;;;6128929;23;20462;-88
2023/07/31 09:17:34;;;;;;;9.25;3.40;;;16.90;99.90;;;;;;6155562;23;20089;-87
2023/07/31 09:20:22;;;;;;;10.35;3.72;;;17.00;99.90;;;;;;6127977;23;20021;-86
2023/07/31 09:22:49;;;;;;;9.57;3.47;;;17.10;99.90;;;;;;6128287;23;20505;-87
2023/07/31 09:25:25;;;;;;;8.80;3.58;;;17.00;99.90;;;;;;6129412;23;20092;-86
2023/07/31 09:27:53;;;;;;;8.23;3.40;;;17.00;99.90;;;;;;6155316;23;20017;-87
2023/07/31 09:30:20;;;;;;;8.50;3.17;;;17.10;99.90;;;;;;6130363;23;20438;-87
2023/07/31 09:32:47;;;;;;;10.57;3.40;;;17.00;99.90;;;;;;6128958;23;20025;-87
2023/07/31 09:35:14;;;;;;;7.88;3.00;;;17.10;99.90;;;;;;6128745;23;20101;-86
2023/07/31 09:37:40;;;;;;;7.63;2.80;;;17.10;99.90;;;;;;6128397;23;20014;-86
2023/07/31 09:40:06;;;;;;;8.07;2.70;;;17.20;99.90;;;;;;6158183;23;20056;-86
2023/07/31 09:42:34;;;;;;;6.38;2.33;;;17.20;99.90;;;;;;6155781;23;20021;-85
2023/07/31 09:45:09;;;;;;;7.88;2.65;;;17.20;99.90;;;;;;6129725;23;20014;-86
2023/07/31 09:47:35;;;;;;;8.23;2.60;;;17.30;99.90;;;;;;6127831;23;20013;-87
2023/07/31 09:50:01;;;;;;;6.57;2.40;;;17.40;99.90;;;;;;6156178;23;20063;-85
2023/07/31 09:52:27;;;;;;;6.28;2.15;;;17.30;99.90;;;;;;6155313;23;20069;-86
2023/07/31 09:54:53;;;;;;;8.45;2.53;;;17.40;99.90;;;;;;6154274;23;20387;-85
2023/07/31 09:57:22;;;;;;;7.97;2.30;;;17.50;99.90;;;;;;6128924;23;20026;-87
2023/07/31 10:00:01;;;;;;;5.78;2.13;;;17.50;99.90;;;;;;6154663;23;20037;-90
2023/07/31 10:02:31;;;;;;;8.45;2.42;;;17.40;99.90;;;;;;6129417;23;20014;-90
2023/07/31 10:05:05;;;;;;;6.82;2.20;;;17.50;99.90;;;;;;6128499;23;20017;-87
2023/07/31 10:07:36;;;;;;;6.68;2.10;;;17.40;99.90;;;;;;6128547;23;20021;-86
2023/07/31 10:10:03;;;;;;;7.13;2.20;;;17.50;99.90;;;;;;6155866;23;20054;-87
2023/07/31 10:12:31;;;;;;;7.93;2.30;;;17.40;99.90;;;;;;6129379;23;20052;-87
2023/07/31 10:14:58;;;;;;;7.28;2.38;;;17.40;99.90;;;;;;6127835;23;20025;-87
2023/07/31 10:17:25;;;;;;;7.78;2.35;;;17.50;99.90;;;;;;6127783;23;20018;-87
2023/07/31 10:19:51;;;;;;;7.32;2.58;;;17.40;99.90;;;;;;6155058;23;20346;-87
2023/07/31 10:22:19;;;;;;;8.30;2.70;;;17.50;99.90;;;;;;6156437;23;20018;-88
2023/07/31 10:24:46;;;;;;;7.50;2.65;;;17.60;99.90;;;;;;6130582;23;20010;-88
2023/07/31 10:27:12;;;;;;;7.57;2.97;;;17.70;99.90;;;;;;6157030;23;20020;-88
2023/07/31 10:29:44;;;;;;;7.18;2.85;;;17.70;99.90;;;;;;6128735;23;20017;-87
2023/07/31 10:32:11;;;;;;;8.50;2.83;;;17.80;99.90;;;;;;6130506;23;20025;-88
2023/07/31 10:34:39;;;;;;;7.95;3.15;;;17.80;99.90;;;;;;6130590;23;20017;-88
2023/07/31 10:37:26;;;;;;;8.38;3.20;;;17.90;99.90;;;;;;6130005;23;20486;-88
2023/07/31 10:40:00;;;;;;;7.30;2.70;;;17.80;99.90;;;;;;6129819;23;20018;-87
2023/07/31 10:42:37;;;;;;;8.23;3.03;;;17.90;99.90;;;;;;6156713;23;20013;-88
2023/07/31 10:45:09;;;;;;;8.07;3.10;;;17.90;99.90;;;;;;6132135;23;20022;-89
2023/07/31 10:47:43;;;;;;;7.50;3.00;;;18.00;99.90;;;;;;6129427;23;20333;-89
2023/07/31 10:50:12;;;;;;;8.27;3.60;;;18.00;99.90;;;;;;6156611;23;20014;-87
2023/07/31 10:52:41;;;;;;;8.30;3.35;;;18.10;99.90;;;;;;6130309;23;20049;-87
2023/07/31 10:55:15;;;;;;;8.43;3.08;;;18.10;99.90;;;;;;6156436;23;20053;-83
2023/07/31 10:57:47;;;;;;;8.10;3.20;;;18.10;99.90;;;;;;6155580;23;20346;-88
2023/07/31 11:00:18;;;;;;;8.82;2.65;;;18.10;99.90;;;;;;6130078;23;20024;-88
2023/07/31 11:03:00;;;;;;;7.28;2.92;;;18.10;99.90;;;;;;6129802;23;20350;-88
2023/07/31 11:05:47;;;;;;;8.10;3.22;;;18.20;99.90;;;;;;6155182;23;20024;-89
2023/07/31 11:08:27;;;;;;;6.78;2.60;;;18.20;99.90;;;;;;6130487;23;20022;-89
2023/07/31 11:11:06;;;;;;;7.85;2.97;;;18.40;99.90;;;;;;6129811;23;20017;-87
2023/07/31 11:16:05;;;;;;;8.18;2.80;;;18.70;99.90;;;;;;6127607;23;20025;-89
2023/07/31 11:18:36;;;;;;;7.43;2.83;;;18.70;99.90;;;;;;6114927;23;20033;-88
2023/07/31 11:24:34;;;;;;;8.18;3.00;;;19.10;99.90;;;;;;6130045;23;20076;-87
2023/07/31 11:27:27;;;;;;;8.60;3.33;;;19.00;99.90;;;;;;6154932;23;20025;-86
2023/07/31 11:41:45;;;;;;;8.07;3.25;;;18.60;99.90;;;;;;6130182;23;20026;-88
2023/07/31 11:44:47;;;;;;;7.55;2.80;;;18.60;99.90;;;;;;6130337;23;20366;-89
2023/07/31 11:51:11;;;;;;;7.95;2.80;;;18.60;99.90;;;;;;6151007;23;20033;-90
2023/07/31 11:54:13;;;;;;;7.45;2.80;;;18.70;99.90;;;;;;6130139;23;20032;-91
2023/07/31 11:57:08;;;;;;;7.82;3.35;;;18.70;99.90;;;;;;6147352;23;20016;-90
2023/07/31 11:59:38;;;;;;;7.35;3.00;;;18.80;99.90;;;;;;6129965;23;20093;-86
2023/07/31 12:02:42;;;;;;;7.38;3.30;;;18.90;99.90;;;;;;6130527;23;20454;-88
2023/07/31 15:20:59;;;;;;;11.57;4.15;;;18.90;99.90;;;;;;6154564;23;20040;-88
2023/07/31 15:23:50;;;;;;;11.00;3.90;;;19.10;99.90;;;;;;6149405;23;20097;-88
2023/07/31 15:33:19;;;;;;;12.60;4.55;;;19.00;99.90;;;;;;5890679;24;20033;-86
2023/07/31 15:39:49;;;;;;;;;;;;;;;;;;;;;
2023/07/31 15:43:05;;;;;;;10.10;4.35;;;18.80;99.90;;;;;;5797734;24;20019;-87
2023/07/31 15:46:33;;;;;;;10.82;4.78;;;18.80;99.90;;;;;;5794502;24;20023;-89
2023/07/31 16:12:49;;;;;;;10.52;4.97;;;18.10;99.90;;;;;;6125093;23;20021;-86
2023/07/31 16:16:05;;;;;;;9.30;4.80;;;18.20;99.90;;;;;;6125620;23;20061;-86
2023/07/31 16:19:05;;;;;;;9.73;4.60;;;18.00;99.90;;;;;;6126319;23;20020;-85
2023/07/31 16:29:48;;;;;;;9.63;4.18;;;18.10;99.90;;;;;;6154032;23;20025;-85
2023/07/31 16:32:57;;;;;;;8.80;4.00;;;18.10;99.90;;;;;;6149174;23;20031;-85
2023/07/31 16:42:44;;;;;;;11.00;4.55;;;18.10;99.90;;;;;;5992059;23;20062;-85
2023/07/31 16:49:50;;;;;;;9.10;4.18;;;18.00;99.90;;;;;;6058421;23;20073;-85
2023/07/31 16:56:28;;;;;;;11.93;3.55;;;17.80;99.90;;;;;;6093041;23;20081;-84
2023/07/31 17:05:58;;;;;;;;;;;;;;;;;;;;;
2023/07/31 17:08:48;;;;;;;8.68;2.17;;;17.70;99.90;;;;;;6027202;23;20157;-85
2023/07/31 17:21:45;;;;;;;10.50;3.40;;;17.60;99.90;;;;;;6157038;23;20099;-85
2023/07/31 17:24:11;;;;;;;9.73;3.10;;;17.60;99.90;;;;;;6182741;23;20040;-86
2023/07/31 17:26:37;;;;;;;9.18;3.10;;;17.50;99.90;;;;;;6157054;23;20389;-86
2023/07/31 17:29:32;;;;;;;9.00;2.88;;;17.50;99.90;;;;;;6157693;23;20013;-85
2023/07/31 17:32:16;;;;;;;10.02;2.83;;;17.50;99.90;;;;;;6156197;23;20032;-85
2023/07/31 17:34:51;;;;;;;12.80;2.65;;;17.70;99.90;;;;;;6156722;23;20017;-85
2023/07/31 17:37:28;;;;;;;11.15;2.60;;;17.40;99.90;;;;;;6156596;23;20013;-84
2023/07/31 17:39:54;;;;;;;9.10;2.90;;;17.40;99.90;;;;;;6157456;23;20443;-86
2023/07/31 17:43:06;;;;;;;7.93;2.10;;;17.30;99.90;;;;;;6184273;23;20024;-86
2023/07/31 17:50:53;;;;;;;6.32;1.88;;;17.40;99.90;;;;;;6007053;23;20067;-87
2023/07/31 17:54:25;;;;;;;;;;;;;;;;;;;;;
2023/07/31 17:57:06;;;;;;;8.18;2.25;;;17.20;99.90;;;;;;5900097;24;20021;-85
2023/07/31 17:59:51;;;;;;;9.20;2.15;;;17.10;99.90;;;;;;5981027;23;20030;-85
2023/07/31 18:02:22;;;;;;;7.38;2.28;;;17.10;99.90;;;;;;5982797;23;20031;-85
2023/07/31 18:04:54;;;;;;;8.63;2.35;;;17.10;99.90;;;;;;5983442;23;20020;-85
2023/07/31 18:16:22;;;;;;;8.07;2.25;;;16.90;99.90;;;;;;6095961;23;20359;-84
2023/07/31 18:18:56;;;;;;;7.78;2.20;;;16.80;99.90;;;;;;6070723;23;20050;-83
2023/07/31 18:21:25;;;;;;;6.75;2.15;;;16.80;99.90;;;;;;6069013;23;20022;-83
2023/07/31 18:23:58;;;;;;;7.13;2.00;;;16.80;99.90;;;;;;6069676;23;20049;-84
2023/07/31 18:26:24;;;;;;;6.28;2.10;;;16.80;99.90;;;;;;6070245;23;20037;-83
2023/07/31 18:28:50;;;;;;;7.25;2.15;;;16.70;99.90;;;;;;6094229;23;20019;-82
2023/07/31 18:31:15;;;;;;;5.30;1.88;;;16.60;99.90;;;;;;6069404;23;20018;-82
2023/07/31 18:33:42;;;;;;;6.40;1.80;;;16.70;99.90;;;;;;6068511;23;20026;-82
2023/07/31 18:36:07;;;;;;;6.85;1.70;;;16.70;99.90;;;;;;6095608;23;20021;-83
2023/07/31 18:38:33;;;;;;;6.93;1.80;;;16.80;99.90;;;;;;6070542;23;20026;-83
2023/07/31 18:40:59;;;;;;;6.20;1.67;;;16.70;99.90;;;;;;6069944;23;20028;-83
2023/07/31 18:43:25;;;;;;;5.45;1.75;;;16.80;99.90;;;;;;6071382;23;20017;-83
2023/07/31 18:45:50;;;;;;;5.30;1.70;;;16.70;99.90;;;;;;6097289;23;20022;-83
2023/07/31 18:48:16;;;;;;;7.65;1.60;;;16.80;99.90;;;;;;6070940;23;20487;-84
2023/07/31 18:50:45;;;;;;;4.93;1.70;;;16.70;99.90;;;;;;6097418;23;20018;-83
2023/07/31 18:53:18;;;;;;;6.68;1.77;;;16.80;99.90;;;;;;6071350;23;20093;-85
2023/07/31 18:55:44;;;;;;;6.35;1.98;;;16.70;99.90;;;;;;6096449;23;20023;-83
2023/07/31 18:58:18;;;;;;;6.07;2.00;;;16.70;99.90;;;;;;6072312;23;20125;-83
2023/07/31 19:00:53;;;;;;;7.22;2.05;;;16.70;99.90;;;;;;6071463;23;20014;-83
2023/07/31 19:03:19;;;;;;;6.80;2.22;;;16.70;99.90;;;;;;6095300;23;20034;-83
2023/07/31 19:05:49;;;;;;;5.82;2.05;;;16.70;99.90;;;;;;6071007;23;20328;-84
2023/07/31 19:08:18;;;;;;;7.25;2.10;;;16.60;99.90;;;;;;6071406;23;20092;-83
2023/07/31 19:10:43;;;;;;;7.07;2.15;;;16.70;99.90;;;;;;6096397;23;20026;-83
2023/07/31 19:13:12;;;;;;;6.45;2.00;;;16.60;99.90;;;;;;6070649;23;20007;-84
2023/07/31 19:15:57;;;;;;;7.15;2.22;;;16.60;99.90;;;;;;6069676;23;20030;-84
2023/07/31 19:18:24;;;;;;;6.78;2.10;;;16.60;99.90;;;;;;6071418;23;20022;-84
2023/07/31 19:21:07;;;;;;;6.25;2.00;;;16.70;99.90;;;;;;6069682;23;20025;-84
2023/07/31 19:23:39;;;;;;;6.53;2.17;;;16.60;99.90;;;;;;6096827;23;20015;-84
2023/07/31 19:26:05;;;;;;;7.22;2.10;;;16.60;99.90;;;;;;6097420;23;20451;-84
2023/07/31 19:28:30;;;;;;;8.45;2.15;;;16.60;99.90;;;;;;6071961;23;20014;-84
2023/07/31 19:30:57;;;;;;;8.27;2.50;;;16.70;99.90;;;;;;6068236;23;20011;-84
